Terminal Aerodrome Forecast
Issued by NWS

Home | Current Version | Previous Version | Text Only | Print | Product List | Glossary On
Versions: 1 2 3 4 5 6 7 8 9 10 11 12 13 14 15 16 17 18 19 20 21 22 23 24 25 26 27 28 29 30 31
000
FTUS44 KOHX 031400 AAB
TAFCKV
TAF AMD
KCKV 031442Z 0315/0412 04007KT P6SM BKN017
     FM031800 03007KT P6SM SCT020
     FM040100 02002KT P6SM SKC
     FM040900 00000KT 4SM BR SKC=

USA.gov is the U.S. government's official web portal to all federal, state and local government web resources and services.